VCG28V EGNR-EGHQ
Flight info
| Callsign | VCG28V |
|---|---|
| Flight time | 0h 48m |
| Altitude | 30000 |
| Route | PENWU DCT PEWBI DCT CF12 DCT FF12 DCT ML12 |
| Aircraft | SF50/L-SDGRWY/L |
Departure
| Time | 2026-04-24 08:21 |
|---|---|
| Airport | Hawarden Airport (EGNR) |
Arrival
| Time | 2026-04-24 09:10 |
|---|---|
| Airport | Cornwall Airport Newquay (EGHQ) |
| Time | Latitude | Longitude | Altitude | Speed | Heading |
|---|---|---|---|---|---|
| 2026-04-24 08:18 | 53.18459 | -2.97401 | 20 ft | 0 kts | 63° |
| 2026-04-24 08:19 | 53.18458 | -2.97271 | 19 ft | 28 kts | 78° |
| 2026-04-24 08:19 | 53.18512 | -2.96929 | 18 ft | 23 kts | 76° |
| 2026-04-24 08:19 | 53.18472 | -2.96817 | 17 ft | 11 kts | 222° |
| 2026-04-24 08:20 | 53.18431 | -2.96876 | 18 ft | 5 kts | 221° |
| 2026-04-24 08:20 | 53.18415 | -2.96898 | 19 ft | 5 kts | 221° |
| 2026-04-24 08:20 | 53.18237 | -2.97158 | 20 ft | 65 kts | 221° |
| 2026-04-24 08:20 | 53.17738 | -2.97872 | 101 ft | 115 kts | 221° |
| 2026-04-24 08:21 | 53.17094 | -2.98764 | 474 ft | 131 kts | 219° |
| 2026-04-24 08:21 | 53.16292 | -2.99795 | 996 ft | 148 kts | 217° |
| 2026-04-24 08:21 | 53.15437 | -3.00833 | 1649 ft | 161 kts | 217° |
| 2026-04-24 08:21 | 53.14508 | -3.01966 | 2321 ft | 166 kts | 214° |
| 2026-04-24 08:22 | 53.13520 | -3.03041 | 3004 ft | 171 kts | 213° |
| 2026-04-24 08:22 | 53.12487 | -3.04025 | 3717 ft | 172 kts | 204° |
| 2026-04-24 08:22 | 53.11348 | -3.04621 | 4422 ft | 172 kts | 192° |
| 2026-04-24 08:22 | 53.10097 | -3.04833 | 4710 ft | 198 kts | 181° |
| 2026-04-24 08:23 | 53.08597 | -3.04874 | 4709 ft | 234 kts | 189° |
| 2026-04-24 08:23 | 53.07049 | -3.06106 | 4833 ft | 260 kts | 221° |
| 2026-04-24 08:23 | 53.05893 | -3.08457 | 5319 ft | 266 kts | 235° |
| 2026-04-24 08:23 | 53.04830 | -3.11012 | 5796 ft | 271 kts | 236° |
| 2026-04-24 08:24 | 53.03755 | -3.13609 | 6272 ft | 274 kts | 236° |
| 2026-04-24 08:24 | 53.02672 | -3.16233 | 6749 ft | 276 kts | 236° |
| 2026-04-24 08:24 | 53.01586 | -3.18864 | 7226 ft | 275 kts | 236° |
| 2026-04-24 08:24 | 53.00493 | -3.21439 | 7695 ft | 270 kts | 231° |
| 2026-04-24 08:25 | 52.99016 | -3.23279 | 8142 ft | 266 kts | 204° |
| 2026-04-24 08:25 | 52.97280 | -3.24213 | 8613 ft | 260 kts | 197° |
| 2026-04-24 08:25 | 52.96147 | -3.24808 | 8926 ft | 256 kts | 199° |
| 2026-04-24 08:25 | 52.94549 | -3.26010 | 9392 ft | 250 kts | 211° |
| 2026-04-24 08:26 | 52.93155 | -3.27655 | 9860 ft | 243 kts | 219° |
| 2026-04-24 08:26 | 52.91837 | -3.29353 | 10330 ft | 238 kts | 217° |
| 2026-04-24 08:26 | 52.90496 | -3.30916 | 10800 ft | 234 kts | 215° |
| 2026-04-24 08:26 | 52.89166 | -3.32431 | 11270 ft | 230 kts | 215° |
| 2026-04-24 08:27 | 52.87875 | -3.33936 | 11739 ft | 225 kts | 216° |
| 2026-04-24 08:27 | 52.86610 | -3.35416 | 12209 ft | 220 kts | 216° |
| 2026-04-24 08:27 | 52.85371 | -3.36858 | 12681 ft | 216 kts | 216° |
| 2026-04-24 08:27 | 52.84157 | -3.38271 | 13146 ft | 211 kts | 216° |
| 2026-04-24 08:28 | 52.82966 | -3.39653 | 13616 ft | 207 kts | 215° |
| 2026-04-24 08:28 | 52.81796 | -3.41006 | 14080 ft | 203 kts | 216° |
| 2026-04-24 08:28 | 52.80658 | -3.42334 | 14549 ft | 198 kts | 216° |
| 2026-04-24 08:28 | 52.79548 | -3.43620 | 15014 ft | 192 kts | 216° |
| 2026-04-24 08:29 | 52.78469 | -3.44874 | 15479 ft | 187 kts | 216° |
| 2026-04-24 08:29 | 52.77425 | -3.46084 | 15939 ft | 180 kts | 216° |
| 2026-04-24 08:29 | 52.76420 | -3.47250 | 16401 ft | 173 kts | 216° |
| 2026-04-24 08:29 | 52.75451 | -3.48372 | 16860 ft | 167 kts | 216° |
| 2026-04-24 08:30 | 52.74520 | -3.49449 | 17318 ft | 160 kts | 216° |
| 2026-04-24 08:30 | 52.73639 | -3.50471 | 17765 ft | 154 kts | 216° |
| 2026-04-24 08:30 | 52.72778 | -3.51467 | 18220 ft | 148 kts | 216° |
| 2026-04-24 08:30 | 52.71955 | -3.52422 | 18671 ft | 141 kts | 216° |
| 2026-04-24 08:31 | 52.71151 | -3.53349 | 19000 ft | 143 kts | 215° |
| 2026-04-24 08:31 | 52.70316 | -3.54311 | 19263 ft | 150 kts | 216° |
| 2026-04-24 08:31 | 52.69447 | -3.55313 | 19530 ft | 155 kts | 215° |
| 2026-04-24 08:31 | 52.68543 | -3.56350 | 19795 ft | 161 kts | 216° |
| 2026-04-24 08:32 | 52.67607 | -3.57429 | 20058 ft | 167 kts | 215° |
| 2026-04-24 08:32 | 52.66639 | -3.58538 | 20320 ft | 172 kts | 215° |
| 2026-04-24 08:32 | 52.65643 | -3.59686 | 20582 ft | 177 kts | 215° |
| 2026-04-24 08:32 | 52.64618 | -3.60862 | 20839 ft | 182 kts | 216° |
| 2026-04-24 08:33 | 52.63572 | -3.62066 | 21096 ft | 186 kts | 215° |
| 2026-04-24 08:33 | 52.62500 | -3.63294 | 21360 ft | 190 kts | 215° |
| 2026-04-24 08:33 | 52.61406 | -3.64552 | 21614 ft | 194 kts | 215° |
| 2026-04-24 08:33 | 52.60285 | -3.65837 | 21866 ft | 199 kts | 215° |
| 2026-04-24 08:34 | 52.59136 | -3.67158 | 22122 ft | 204 kts | 215° |
| 2026-04-24 08:34 | 52.57957 | -3.68511 | 22379 ft | 210 kts | 215° |
| 2026-04-24 08:34 | 52.56745 | -3.69901 | 22636 ft | 215 kts | 215° |
| 2026-04-24 08:34 | 52.55500 | -3.71324 | 22894 ft | 221 kts | 215° |
| 2026-04-24 08:35 | 52.54242 | -3.72764 | 23270 ft | 220 kts | 215° |
| 2026-04-24 08:35 | 52.52984 | -3.74201 | 23644 ft | 220 kts | 215° |
| 2026-04-24 08:35 | 52.51731 | -3.75633 | 24016 ft | 219 kts | 215° |
| 2026-04-24 08:35 | 52.50485 | -3.77059 | 24388 ft | 218 kts | 215° |
| 2026-04-24 08:36 | 52.49244 | -3.78473 | 24762 ft | 216 kts | 215° |
| 2026-04-24 08:36 | 52.48016 | -3.79874 | 25129 ft | 214 kts | 215° |
| 2026-04-24 08:36 | 52.46813 | -3.81245 | 25496 ft | 211 kts | 215° |
| 2026-04-24 08:36 | 52.45615 | -3.82610 | 25864 ft | 208 kts | 215° |
| 2026-04-24 08:37 | 52.44434 | -3.83950 | 26231 ft | 205 kts | 215° |
| 2026-04-24 08:37 | 52.43277 | -3.85264 | 26602 ft | 200 kts | 215° |
| 2026-04-24 08:37 | 52.42149 | -3.86544 | 26961 ft | 194 kts | 215° |
| 2026-04-24 08:37 | 52.41053 | -3.87786 | 27321 ft | 188 kts | 215° |
| 2026-04-24 08:38 | 52.39999 | -3.88984 | 27679 ft | 181 kts | 215° |
| 2026-04-24 08:38 | 52.38984 | -3.90133 | 27988 ft | 176 kts | 215° |
| 2026-04-24 08:38 | 52.37939 | -3.91316 | 28000 ft | 189 kts | 215° |
| 2026-04-24 08:38 | 52.36819 | -3.92582 | 28010 ft | 203 kts | 215° |
| 2026-04-24 08:39 | 52.35616 | -3.93944 | 28010 ft | 218 kts | 215° |
| 2026-04-24 08:39 | 52.34329 | -3.95399 | 28012 ft | 232 kts | 215° |
| 2026-04-24 08:39 | 52.32968 | -3.96936 | 28011 ft | 244 kts | 215° |
| 2026-04-24 08:39 | 52.31543 | -3.98542 | 28008 ft | 254 kts | 215° |
| 2026-04-24 08:40 | 52.30063 | -4.00214 | 28007 ft | 263 kts | 215° |
| 2026-04-24 08:40 | 52.28539 | -4.01934 | 28013 ft | 270 kts | 215° |
| 2026-04-24 08:40 | 52.26976 | -4.03693 | 28010 ft | 276 kts | 215° |
| 2026-04-24 08:40 | 52.25383 | -4.05486 | 28008 ft | 281 kts | 215° |
| 2026-04-24 08:41 | 52.23764 | -4.07309 | 28010 ft | 285 kts | 215° |
| 2026-04-24 08:41 | 52.22120 | -4.09155 | 28008 ft | 288 kts | 215° |
| 2026-04-24 08:41 | 52.20460 | -4.11019 | 28013 ft | 291 kts | 215° |
| 2026-04-24 08:41 | 52.18779 | -4.12904 | 28006 ft | 295 kts | 215° |
| 2026-04-24 08:42 | 52.17084 | -4.14803 | 28009 ft | 297 kts | 215° |
| 2026-04-24 08:42 | 52.15371 | -4.16720 | 28008 ft | 300 kts | 215° |
| 2026-04-24 08:42 | 52.13644 | -4.18653 | 28007 ft | 303 kts | 214° |
| 2026-04-24 08:43 | 52.10171 | -4.22529 | 28006 ft | 307 kts | 214° |
| 2026-04-24 08:43 | 52.06629 | -4.26475 | 28008 ft | 311 kts | 214° |
| 2026-04-24 08:44 | 52.03041 | -4.30466 | 28009 ft | 314 kts | 214° |
| 2026-04-24 08:44 | 51.99420 | -4.34484 | 28011 ft | 317 kts | 214° |
| 2026-04-24 08:45 | 51.95768 | -4.38529 | 28008 ft | 319 kts | 214° |
| 2026-04-24 08:45 | 51.92095 | -4.42588 | 28013 ft | 320 kts | 214° |
| 2026-04-24 08:46 | 51.88412 | -4.46651 | 28007 ft | 319 kts | 214° |
| 2026-04-24 08:46 | 51.84758 | -4.50673 | 28006 ft | 316 kts | 214° |
| 2026-04-24 08:47 | 51.81152 | -4.54630 | 28003 ft | 311 kts | 214° |
| 2026-04-24 08:47 | 51.77602 | -4.58526 | 27999 ft | 306 kts | 214° |
| 2026-04-24 08:47 | 51.75792 | -4.60301 | 27996 ft | 303 kts | 211° |
| 2026-04-24 08:48 | 51.73992 | -4.62039 | 27995 ft | 301 kts | 211° |
| 2026-04-24 08:48 | 51.72203 | -4.63782 | 27994 ft | 299 kts | 211° |
| 2026-04-24 08:48 | 51.70446 | -4.65491 | 27992 ft | 298 kts | 211° |
| 2026-04-24 08:48 | 51.68668 | -4.67210 | 27988 ft | 297 kts | 211° |
| 2026-04-24 08:49 | 51.66904 | -4.68920 | 27993 ft | 295 kts | 211° |
| 2026-04-24 08:49 | 51.65146 | -4.70621 | 27992 ft | 294 kts | 211° |
| 2026-04-24 08:49 | 51.63389 | -4.72318 | 27991 ft | 294 kts | 211° |
| 2026-04-24 08:49 | 51.61637 | -4.74012 | 27992 ft | 293 kts | 211° |
| 2026-04-24 08:50 | 51.59893 | -4.75694 | 27992 ft | 292 kts | 211° |
| 2026-04-24 08:50 | 51.58152 | -4.77371 | 27988 ft | 292 kts | 211° |
| 2026-04-24 08:50 | 51.56413 | -4.79049 | 27991 ft | 291 kts | 211° |
| 2026-04-24 08:50 | 51.54678 | -4.80716 | 27990 ft | 291 kts | 211° |
| 2026-04-24 08:51 | 51.52945 | -4.82384 | 27991 ft | 290 kts | 211° |
| 2026-04-24 08:51 | 51.51215 | -4.84046 | 27992 ft | 290 kts | 211° |
| 2026-04-24 08:51 | 51.49483 | -4.85707 | 27992 ft | 290 kts | 211° |
| 2026-04-24 08:51 | 51.47757 | -4.87363 | 27989 ft | 289 kts | 211° |
| 2026-04-24 08:52 | 51.46029 | -4.89017 | 27990 ft | 289 kts | 211° |
| 2026-04-24 08:52 | 51.44303 | -4.90668 | 27992 ft | 289 kts | 211° |
| 2026-04-24 08:52 | 51.42577 | -4.92316 | 27995 ft | 288 kts | 211° |
| 2026-04-24 08:52 | 51.40839 | -4.93976 | 27713 ft | 298 kts | 211° |
| 2026-04-24 08:53 | 51.39026 | -4.95707 | 27237 ft | 300 kts | 211° |
| 2026-04-24 08:53 | 51.37303 | -4.97349 | 26730 ft | 278 kts | 211° |
| 2026-04-24 08:53 | 51.35692 | -4.98884 | 26223 ft | 262 kts | 211° |
| 2026-04-24 08:53 | 51.34186 | -5.00319 | 25951 ft | 242 kts | 211° |
| 2026-04-24 08:54 | 51.32785 | -5.01649 | 25686 ft | 227 kts | 211° |
| 2026-04-24 08:54 | 51.31465 | -5.02907 | 25422 ft | 215 kts | 211° |
| 2026-04-24 08:54 | 51.30122 | -5.03788 | 25150 ft | 207 kts | 187° |
| 2026-04-24 08:54 | 51.28748 | -5.03524 | 24902 ft | 199 kts | 166° |
| 2026-04-24 08:55 | 51.27428 | -5.02983 | 24648 ft | 193 kts | 166° |
| 2026-04-24 08:55 | 51.26139 | -5.02457 | 24392 ft | 188 kts | 167° |
| 2026-04-24 08:55 | 51.24852 | -5.02384 | 24134 ft | 184 kts | 186° |
| 2026-04-24 08:55 | 51.23540 | -5.02593 | 23883 ft | 198 kts | 186° |
| 2026-04-24 08:56 | 51.22110 | -5.02821 | 23601 ft | 216 kts | 186° |
| 2026-04-24 08:56 | 51.20522 | -5.03078 | 23128 ft | 241 kts | 186° |
| 2026-04-24 08:56 | 51.18794 | -5.03357 | 22650 ft | 258 kts | 186° |
| 2026-04-24 08:56 | 51.16942 | -5.03658 | 22158 ft | 270 kts | 186° |
| 2026-04-24 08:57 | 51.15047 | -5.03967 | 21667 ft | 278 kts | 186° |
| 2026-04-24 08:57 | 51.13106 | -5.04282 | 21172 ft | 283 kts | 186° |
| 2026-04-24 08:57 | 51.11134 | -5.04604 | 20676 ft | 286 kts | 186° |
| 2026-04-24 08:57 | 51.09145 | -5.04928 | 20181 ft | 288 kts | 186° |
| 2026-04-24 08:58 | 51.07168 | -5.05250 | 19686 ft | 289 kts | 186° |
| 2026-04-24 08:58 | 51.05166 | -5.05576 | 19188 ft | 290 kts | 186° |
| 2026-04-24 08:58 | 51.03158 | -5.05903 | 18686 ft | 290 kts | 186° |
| 2026-04-24 08:58 | 51.01153 | -5.06229 | 18194 ft | 290 kts | 186° |
| 2026-04-24 08:59 | 50.99149 | -5.06553 | 17692 ft | 289 kts | 186° |
| 2026-04-24 08:59 | 50.97143 | -5.06812 | 17192 ft | 289 kts | 184° |
| 2026-04-24 08:59 | 50.95141 | -5.07043 | 16693 ft | 288 kts | 185° |
| 2026-04-24 08:59 | 50.93144 | -5.07304 | 16193 ft | 288 kts | 185° |
| 2026-04-24 09:00 | 50.91150 | -5.07572 | 15694 ft | 287 kts | 185° |
| 2026-04-24 09:00 | 50.89162 | -5.07829 | 15193 ft | 286 kts | 185° |
| 2026-04-24 09:00 | 50.87177 | -5.08086 | 14695 ft | 286 kts | 185° |
| 2026-04-24 09:00 | 50.85197 | -5.08344 | 14196 ft | 285 kts | 185° |
| 2026-04-24 09:01 | 50.83221 | -5.08598 | 13697 ft | 285 kts | 185° |
| 2026-04-24 09:01 | 50.81248 | -5.08856 | 13198 ft | 284 kts | 185° |
| 2026-04-24 09:01 | 50.79279 | -5.09111 | 12698 ft | 284 kts | 185° |
| 2026-04-24 09:01 | 50.77314 | -5.09363 | 12199 ft | 283 kts | 185° |
| 2026-04-24 09:02 | 50.75353 | -5.09619 | 11697 ft | 283 kts | 185° |
| 2026-04-24 09:02 | 50.73397 | -5.09870 | 11200 ft | 282 kts | 185° |
| 2026-04-24 09:02 | 50.71443 | -5.10121 | 10701 ft | 281 kts | 185° |
| 2026-04-24 09:02 | 50.69494 | -5.10375 | 10017 ft | 284 kts | 185° |
| 2026-04-24 09:03 | 50.67449 | -5.10636 | 8550 ft | 297 kts | 185° |
| 2026-04-24 09:03 | 50.65483 | -5.10888 | 7089 ft | 272 kts | 185° |
| 2026-04-24 09:03 | 50.63645 | -5.11125 | 5625 ft | 260 kts | 185° |
| 2026-04-24 09:03 | 50.61907 | -5.11350 | 4609 ft | 241 kts | 185° |
| 2026-04-24 09:04 | 50.60285 | -5.11556 | 3617 ft | 228 kts | 185° |
| 2026-04-24 09:04 | 50.58729 | -5.11757 | 2630 ft | 221 kts | 185° |
| 2026-04-24 09:04 | 50.57232 | -5.11949 | 2008 ft | 203 kts | 185° |
| 2026-04-24 09:04 | 50.55930 | -5.12116 | 1988 ft | 185 kts | 185° |
| 2026-04-24 09:05 | 50.54734 | -5.12270 | 1988 ft | 158 kts | 185° |
| 2026-04-24 09:05 | 50.53736 | -5.12397 | 1988 ft | 135 kts | 185° |
| 2026-04-24 09:05 | 50.52863 | -5.12513 | 1987 ft | 118 kts | 186° |
| 2026-04-24 09:05 | 50.51984 | -5.12638 | 2005 ft | 142 kts | 186° |
| 2026-04-24 09:06 | 50.50944 | -5.12797 | 2016 ft | 147 kts | 186° |
| 2026-04-24 09:06 | 50.49992 | -5.12945 | 1997 ft | 128 kts | 187° |
| 2026-04-24 09:06 | 50.49153 | -5.13001 | 1975 ft | 120 kts | 167° |
| 2026-04-24 09:06 | 50.48489 | -5.12022 | 2015 ft | 147 kts | 111° |
| 2026-04-24 09:07 | 50.48246 | -5.10583 | 1906 ft | 133 kts | 123° |
| 2026-04-24 09:07 | 50.47757 | -5.09384 | 1704 ft | 130 kts | 120° |
| 2026-04-24 09:07 | 50.46907 | -5.07074 | 1497 ft | 142 kts | 119° |
| 2026-04-24 09:08 | 50.46428 | -5.05729 | 965 ft | 127 kts | 118° |
| 2026-04-24 09:08 | 50.46059 | -5.04728 | 846 ft | 93 kts | 118° |
| 2026-04-24 09:08 | 50.45713 | -5.03782 | 794 ft | 105 kts | 121° |
| 2026-04-24 09:08 | 50.45308 | -5.02803 | 685 ft | 107 kts | 119° |
| 2026-04-24 09:09 | 50.44968 | -5.01902 | 520 ft | 84 kts | 124° |
| 2026-04-24 09:09 | 50.44679 | -5.01122 | 348 ft | 86 kts | 122° |
| 2026-04-24 09:09 | 50.44389 | -5.00366 | 333 ft | 71 kts | 121° |
| 2026-04-24 09:09 | 50.44179 | -4.99811 | 344 ft | 50 kts | 121° |
| 2026-04-24 09:10 | 50.44087 | -4.99560 | 351 ft | 12 kts | 112° |
| 2026-04-24 09:10 | 50.44110 | -4.99495 | 354 ft | 6 kts | 358° |
| 2026-04-24 09:10 | 50.44182 | -4.99489 | 353 ft | 23 kts | 5° |
| 2026-04-24 09:10 | 50.44303 | -4.99477 | 351 ft | 14 kts | 5° |
| 2026-04-24 09:11 | 50.44340 | -4.99474 | 350 ft | 0 kts | 0° |